Time;durP1;ratioP1;P1;durP2;ratioP2;P2;SDS_P1;SDS_P2;PMS_P1;PMS_P2;Temp;Humidity;BMP_temperature;BMP_pressure;BME280_temperature;BME280_humidity;BME280_pressure;Samples;Min_cycle;Max_cycle;Signal;HPM_P1;HPM_P2
2021/12/04 00:00:05;;;;;;;0.63;0.60;;;;;;;7.42;57.35;99718.44;5040668;28;20037;-90
2021/12/04 00:02:34;;;;;;;0.60;0.57;;;;;;;7.35;57.30;99707.38;5047291;28;20029;-90
2021/12/04 00:05:02;;;;;;;0.40;0.40;;;;;;;7.24;56.69;99699.06;5043450;28;20099;-90
2021/12/04 00:07:31;;;;;;;1.27;0.70;;;;;;;7.29;56.49;99696.34;5055613;28;20040;-90
2021/12/04 00:10:01;;;;;;;0.50;0.50;;;;;;;7.21;57.79;99693.13;5039764;28;20285;-90
2021/12/04 00:12:27;;;;;;;0.55;0.55;;;;;;;7.35;56.33;99684.13;5022524;28;20044;-90
2021/12/04 00:14:52;;;;;;;1.33;0.90;;;;;;;7.47;56.38;99689.00;5044037;28;20024;-90
2021/12/04 00:17:18;;;;;;;0.98;0.57;;;;;;;7.22;56.86;99685.34;5035691;28;20390;-90
2021/12/04 00:19:43;;;;;;;0.77;0.50;;;;;;;7.30;56.47;99680.84;5046886;28;20057;-90
2021/12/04 00:22:09;;;;;;;1.40;0.75;;;;;;;7.33;56.41;99675.59;5023528;28;20033;-90
2021/12/04 00:24:35;;;;;;;0.63;0.50;;;;;;;7.34;56.18;99668.69;5040581;28;20037;-90
2021/12/04 00:27:01;;;;;;;0.75;0.60;;;;;;;7.29;57.23;99660.19;5027842;28;20037;-90
2021/12/04 00:29:27;;;;;;;1.38;0.80;;;;;;;7.47;57.04;99652.81;5042913;28;20025;-90
2021/12/04 00:32:00;;;;;;;0.57;0.52;;;;;;;7.42;57.37;99669.34;5023260;28;20084;-90
2021/12/04 00:34:28;;;;;;;0.68;0.60;;;;;;;7.34;56.15;99655.78;5046708;28;20669;-90
2021/12/04 00:50:16;;;;;;;0.40;0.40;;;;;;;7.46;56.55;99656.31;5028931;28;20417;-90
2021/12/04 00:52:42;;;;;;;0.85;0.60;;;;;;;7.51;57.01;99645.84;5017356;28;20041;-90
2021/12/04 00:55:07;;;;;;;0.47;0.47;;;;;;;7.44;56.03;99644.31;5035559;28;20108;-90
2021/12/04 00:57:33;;;;;;;0.80;0.60;;;;;;;7.46;56.16;99645.97;5041917;28;20517;-90
2021/12/04 01:00:00;;;;;;;0.68;0.50;;;;;;;7.29;57.51;99636.94;5041356;28;20041;-90
2021/12/04 01:02:26;;;;;;;0.80;0.65;;;;;;;7.38;56.75;99632.41;5040673;28;20033;-90
2021/12/04 01:04:51;;;;;;;0.80;0.60;;;;;;;7.56;56.87;99643.97;5021018;28;20804;-90
2021/12/04 01:07:18;;;;;;;1.40;0.50;;;;;;;7.61;55.99;99636.97;5040934;28;20067;-90
2021/12/04 01:09:44;;;;;;;0.90;0.60;;;;;;;7.33;57.04;99636.84;5035811;28;20087;-90
2021/12/04 01:12:10;;;;;;;0.80;0.50;;;;;;;7.19;58.33;99632.91;5035324;28;20120;-90
2021/12/04 01:14:36;;;;;;;0.65;0.50;;;;;;;7.41;56.66;99627.16;5047452;28;20031;-90
2021/12/04 01:17:02;;;;;;;0.82;0.60;;;;;;;7.29;57.92;99636.94;5038960;28;20045;-90
2021/12/04 01:19:29;;;;;;;0.73;0.40;;;;;;;7.51;56.89;99636.38;5054443;28;20087;-90
2021/12/04 01:21:55;;;;;;;0.90;0.55;;;;;;;7.54;56.59;99628.53;5042403;28;20042;-90
2021/12/04 01:24:21;;;;;;;0.68;0.50;;;;;;;7.51;56.53;99633.78;5040121;28;20465;-90
2021/12/04 01:26:48;;;;;;;1.02;0.60;;;;;;;7.30;56.43;99631.75;5041761;28;20028;-90
2021/12/04 01:29:16;;;;;;;0.77;0.57;;;;;;;7.42;56.27;99639.19;5044944;28;20119;-90
2021/12/04 01:31:43;;;;;;;0.95;0.60;;;;;;;7.42;56.98;99628.84;5050984;28;20036;-90
2021/12/04 01:34:09;;;;;;;1.20;0.50;;;;;;;7.35;56.80;99632.47;5035652;28;20068;-90
2021/12/04 01:36:35;;;;;;;0.50;0.50;;;;;;;7.42;56.96;99628.84;5019226;28;20061;-90
2021/12/04 01:39:04;;;;;;;1.35;0.50;;;;;;;7.40;56.42;99630.63;5036986;28;20043;-90
2021/12/04 01:41:30;;;;;;;0.93;0.60;;;;;;;7.49;57.12;99629.53;5045933;28;20060;-90
2021/12/04 01:43:58;;;;;;;0.52;0.52;;;;;;;7.46;57.45;99611.53;5043620;28;20076;-90
2021/12/04 01:46:24;;;;;;;0.85;0.60;;;;;;;7.37;57.33;99614.38;5044656;28;20033;-90
2021/12/04 01:48:49;;;;;;;1.13;0.50;;;;;;;7.53;57.50;99607.88;5026519;28;20048;-90
2021/12/04 01:51:14;;;;;;;0.70;0.60;;;;;;;7.56;58.04;99605.22;5038149;28;20047;-90
2021/12/04 01:53:40;;;;;;;0.95;0.60;;;;;;;7.52;58.27;99608.78;5040200;28;20095;-90
2021/12/04 01:56:06;;;;;;;0.75;0.70;;;;;;;7.42;58.85;99604.75;5041493;28;20533;-90
2021/12/04 01:58:31;;;;;;;0.57;0.50;;;;;;;7.39;59.02;99605.69;5024530;28;20049;-90
2021/12/04 02:00:57;;;;;;;1.65;0.95;;;;;;;7.45;58.57;99602.09;5037868;28;20117;-90
2021/12/04 02:03:23;;;;;;;0.88;0.65;;;;;;;7.11;59.84;99595.22;5036834;28;20033;-89
2021/12/04 02:05:49;;;;;;;0.82;0.50;;;;;;;7.32;59.51;99596.38;5041117;28;20021;-90
2021/12/04 02:08:20;;;;;;;1.45;0.88;;;;;;;7.37;60.27;99586.81;5047736;28;20095;-90
2021/12/04 02:10:49;;;;;;;1.38;1.02;;;;;;;7.48;59.37;99584.78;5043658;28;20052;-90
2021/12/04 02:13:15;;;;;;;0.93;0.60;;;;;;;7.46;59.93;99583.97;5042140;28;20037;-90
2021/12/04 02:15:41;;;;;;;2.33;0.68;;;;;;;7.45;60.37;99576.25;5039758;28;20090;-90
2021/12/04 02:18:08;;;;;;;1.13;0.57;;;;;;;7.44;60.41;99572.81;5040197;28;20029;-90
2021/12/04 02:20:34;;;;;;;0.65;0.60;;;;;;;7.39;60.00;99576.41;5037222;28;20029;-89
2021/12/04 02:23:04;;;;;;;1.15;0.60;;;;;;;7.35;60.59;99567.03;5043542;28;20166;-90
2021/12/04 02:25:30;;;;;;;0.85;0.60;;;;;;;7.35;60.70;99572.19;5021583;28;20509;-90
2021/12/04 02:27:56;;;;;;;1.27;0.73;;;;;;;7.38;60.36;99565.22;5039892;28;20124;-90
2021/12/04 02:30:25;;;;;;;1.08;0.63;;;;;;;7.30;60.30;99563.75;5036650;28;20120;-90
2021/12/04 02:32:52;;;;;;;0.75;0.73;;;;;;;7.35;60.08;99561.88;5038076;28;20028;-90
2021/12/04 02:35:18;;;;;;;0.70;0.70;;;;;;;7.23;60.73;99552.72;5042787;28;20036;-90
2021/12/04 02:37:44;;;;;;;0.95;0.70;;;;;;;7.45;60.12;99545.25;5022874;28;20049;-90
2021/12/04 02:40:13;;;;;;;0.80;0.80;;;;;;;7.48;60.02;99545.16;5038635;28;20076;-90
2021/12/04 02:42:39;;;;;;;1.27;0.77;;;;;;;7.43;60.16;99542.72;5038827;28;20064;-90
2021/12/04 02:45:08;;;;;;;1.15;0.80;;;;;;;7.42;60.02;99542.75;5044053;28;20067;-90
2021/12/04 02:47:34;;;;;;;1.83;0.80;;;;;;;7.40;59.92;99531.63;5043907;28;20060;-90
2021/12/04 02:50:04;;;;;;;1.58;1.08;;;;;;;7.46;59.81;99521.97;5040594;28;20084;-90
2021/12/04 02:52:30;;;;;;;2.42;1.25;;;;;;;7.43;59.44;99516.03;5037182;28;20069;-90
2021/12/04 02:54:55;;;;;;;1.55;1.00;;;;;;;7.33;59.45;99506.81;5041874;28;20767;-89
2021/12/04 02:57:21;;;;;;;1.05;0.82;;;;;;;7.39;59.62;99504.94;5037260;28;20049;-89
2021/12/04 02:59:48;;;;;;;2.10;0.98;;;;;;;7.21;60.28;99504.59;5043722;28;20474;-90
2021/12/04 03:02:20;;;;;;;1.02;0.90;;;;;;;7.34;60.57;99506.81;5024179;28;20409;-90
2021/12/04 03:04:49;;;;;;;1.40;0.80;;;;;;;7.48;59.86;99498.66;5048134;28;20044;-90
2021/12/04 03:07:15;;;;;;;3.70;1.00;;;;;;;7.48;59.47;99499.50;5059764;28;20049;-90
2021/12/04 03:09:43;;;;;;;0.95;0.90;;;;;;;7.44;59.31;99497.88;5031076;28;20091;-90
2021/12/04 03:12:10;;;;;;;1.40;1.00;;;;;;;7.28;59.89;99488.03;5039677;28;20044;-90
2021/12/04 03:14:36;;;;;;;1.58;0.90;;;;;;;7.32;60.13;99484.47;5046358;28;20489;-90
2021/12/04 03:17:03;;;;;;;2.47;0.90;;;;;;;7.28;59.91;99478.56;5042844;28;20087;-90
2021/12/04 03:19:29;;;;;;;2.38;1.25;;;;;;;7.27;60.27;99476.00;5033601;28;20055;-90
2021/12/04 03:21:56;;;;;;;1.48;0.95;;;;;;;7.28;59.74;99473.41;5041508;28;20511;-89
2021/12/04 03:24:23;;;;;;;2.25;0.90;;;;;;;7.08;61.30;99479.09;5032478;28;20067;-90
2021/12/04 03:26:50;;;;;;;1.67;1.10;;;;;;;7.37;59.83;99474.88;5040481;28;20025;-90
2021/12/04 03:29:19;;;;;;;3.75;1.00;;;;;;;7.40;59.69;99472.19;5042343;28;20087;-90
2021/12/04 03:42:35;;;;;;;0.85;0.73;;;;;;;7.26;60.02;99449.31;5050391;28;20425;-90
2021/12/04 03:45:02;;;;;;;0.90;0.70;;;;;;;7.42;59.38;99445.41;5026911;28;20491;-90
2021/12/04 03:47:30;;;;;;;1.05;0.80;;;;;;;7.11;60.87;99444.59;5048145;28;20049;-89
2021/12/04 03:49:56;;;;;;;0.90;0.75;;;;;;;7.24;60.21;99447.69;5044183;28;20379;-90
2021/12/04 03:52:22;;;;;;;2.70;0.80;;;;;;;7.38;60.11;99442.94;5054548;28;20041;-90
2021/12/04 03:54:47;;;;;;;1.25;1.00;;;;;;;7.41;60.15;99429.94;5041992;28;20056;-90
2021/12/04 03:57:13;;;;;;;0.90;0.80;;;;;;;7.29;60.29;99427.72;5046120;28;20037;-90
2021/12/04 03:59:41;;;;;;;5.85;1.60;;;;;;;7.12;60.67;99428.22;5041649;28;20036;-90
2021/12/04 04:02:11;;;;;;;0.90;0.73;;;;;;;7.32;59.14;99401.81;5047619;28;20429;-90
2021/12/04 04:04:37;;;;;;;1.50;0.90;;;;;;;7.33;59.34;99390.59;5042084;28;20451;-90
2021/12/04 04:07:03;;;;;;;0.88;0.70;;;;;;;7.39;59.48;99399.00;5046516;28;20068;-90
2021/12/04 04:09:29;;;;;;;0.88;0.60;;;;;;;7.29;59.29;99400.16;5040497;28;20045;-90
2021/12/04 04:11:55;;;;;;;1.05;0.70;;;;;;;7.18;59.61;99401.38;5037986;28;20105;-89
2021/12/04 04:14:22;;;;;;;1.20;0.80;;;;;;;7.04;60.32;99406.94;5010433;28;20534;-90
2021/12/04 04:16:48;;;;;;;0.82;0.70;;;;;;;7.46;58.73;99407.44;5042345;28;20513;-89
2021/12/04 04:19:13;;;;;;;1.42;0.88;;;;;;;7.19;60.25;99400.47;5009274;28;20033;-90
2021/12/04 04:21:41;;;;;;;0.63;0.60;;;;;;;7.37;58.73;99405.13;5028719;28;20075;-90
2021/12/04 04:24:16;;;;;;;1.00;0.65;;;;;;;7.20;59.22;99405.59;5030066;28;20671;-90
2021/12/04 04:26:43;;;;;;;0.93;0.88;;;;;;;7.37;59.56;99397.38;5043120;28;20040;-89
2021/12/04 04:29:10;;;;;;;1.27;0.90;;;;;;;7.24;59.36;99396.03;5051255;28;20127;-89
2021/12/04 04:31:43;;;;;;;1.63;0.90;;;;;;;7.16;60.00;99393.69;5046213;28;20421;-89
2021/12/04 04:34:09;;;;;;;1.10;1.00;;;;;;;7.24;59.46;99393.44;5045551;28;20033;-90
2021/12/04 04:58:25;;;;;;;2.23;1.40;;;;;;;7.18;60.48;99381.56;5031257;28;20442;-90
2021/12/04 05:11:59;;;;;;;1.63;1.08;;;;;;;7.45;58.61;99359.22;5041603;28;20113;-89
2021/12/04 05:14:25;;;;;;;1.85;1.10;;;;;;;7.19;59.91;99361.75;5043592;28;20037;-88
2021/12/04 05:16:58;;;;;;;3.75;1.25;;;;;;;7.12;59.83;99361.06;5045898;28;20048;-90
2021/12/04 05:19:52;;;;;;;1.58;1.02;;;;;;;7.08;59.57;99364.63;5045543;28;20037;-89
2021/12/04 05:22:13;;;;;;;1.95;1.23;;;;;;;7.37;59.19;99359.47;5043994;28;20072;-90
2021/12/04 05:24:40;;;;;;;2.90;1.13;;;;;;;7.21;58.57;99350.47;5023428;28;20042;-90
2021/12/04 05:27:07;;;;;;;2.58;1.40;;;;;;;7.34;58.89;99346.66;5042643;28;20049;-89
2021/12/04 05:29:33;;;;;;;1.77;1.20;;;;;;;7.34;59.17;99349.22;5044704;28;20111;-89
2021/12/04 05:31:59;;;;;;;2.38;1.33;;;;;;;7.03;60.46;99356.19;5039851;28;20041;-90
2021/12/04 05:34:25;;;;;;;1.30;1.02;;;;;;;7.28;59.01;99354.56;5045292;28;20044;-89
2021/12/04 05:36:51;;;;;;;2.05;1.42;;;;;;;7.17;60.13;99361.78;5041046;28;20100;-90
2021/12/04 05:39:16;;;;;;;2.25;1.20;;;;;;;7.34;58.97;99354.41;5029932;28;20499;-90
2021/12/04 05:41:42;;;;;;;2.00;1.00;;;;;;;7.07;59.42;99353.47;5019453;28;20466;-89
2021/12/04 05:44:09;;;;;;;1.60;1.15;;;;;;;7.31;59.34;99349.31;5042677;28;20033;-89
2021/12/04 05:46:44;;;;;;;1.33;0.95;;;;;;;7.32;58.33;99340.66;5041916;28;20053;-89
2021/12/04 05:55:16;;;;;;;2.47;1.45;;;;;;;7.20;59.89;99340.22;5043235;28;20054;-89
2021/12/04 05:57:10;;;;;;;2.65;1.33;;;;;;;7.25;58.96;99341.75;5021132;28;20029;-90
2021/12/04 05:59:36;;;;;;;1.67;1.15;;;;;;;7.35;58.54;99337.13;5025277;28;20029;-90
2021/12/04 06:02:03;;;;;;;1.50;1.00;;;;;;;7.11;60.23;99334.41;5029959;28;20120;-90
2021/12/04 06:04:29;;;;;;;1.60;1.23;;;;;;;7.10;59.70;99340.47;5042014;28;20502;-89
2021/12/04 06:06:57;;;;;;;1.67;1.27;;;;;;;6.99;60.69;99339.91;5037474;28;20041;-90
2021/12/04 06:09:23;;;;;;;1.38;0.95;;;;;;;7.17;59.64;99335.94;5027532;28;20044;-89
2021/12/04 06:11:49;;;;;;;1.92;1.27;;;;;;;7.14;59.77;99342.06;5042389;28;20021;-89
2021/12/04 06:14:14;;;;;;;1.13;1.00;;;;;;;7.12;59.57;99335.25;5044719;28;20029;-89
2021/12/04 06:16:40;;;;;;;1.77;1.05;;;;;;;7.18;59.68;99336.81;5045369;28;20194;-89
2021/12/04 06:19:24;;;;;;;1.50;1.40;;;;;;;7.24;59.28;99341.78;5041979;28;20036;-89
2021/12/04 06:24:33;;;;;;;1.25;0.93;;;;;;;7.17;60.00;99355.78;5038951;28;20191;-90
2021/12/04 06:26:59;;;;;;;2.25;1.30;;;;;;;6.83;61.17;99363.66;5041818;28;20041;-90
2021/12/04 06:29:24;;;;;;;1.67;1.20;;;;;;;7.07;59.86;99356.06;5042821;28;20047;-90
2021/12/04 06:31:50;;;;;;;3.72;1.17;;;;;;;7.14;60.68;99342.06;5031809;28;20145;-90
2021/12/04 06:34:15;;;;;;;1.88;1.30;;;;;;;6.95;59.46;99342.66;5024951;28;20056;-89
2021/12/04 06:36:41;;;;;;;1.98;1.20;;;;;;;7.15;59.47;99340.31;5039600;28;20573;-90
2021/12/04 06:39:06;;;;;;;4.18;1.25;;;;;;;7.04;59.88;99337.22;5049923;28;20032;-90
2021/12/04 06:41:32;;;;;;;2.20;1.70;;;;;;;6.81;60.67;99337.88;5026884;28;20029;-90
2021/12/04 06:43:57;;;;;;;3.20;1.95;;;;;;;6.97;59.77;99333.97;5047052;28;20041;-90
2021/12/04 06:46:23;;;;;;;1.52;1.10;;;;;;;6.87;60.64;99332.53;5037929;28;20041;-89
2021/12/04 06:49:13;;;;;;;2.55;1.55;;;;;;;6.94;59.85;99344.38;5040780;28;20522;-90
2021/12/04 06:51:41;;;;;;;1.80;1.33;;;;;;;7.02;59.93;99344.16;5040192;28;20087;-90
2021/12/04 06:54:22;;;;;;;1.90;1.50;;;;;;;6.85;60.01;99339.47;5040839;28;20610;-90
2021/12/04 06:56:48;;;;;;;2.15;1.65;;;;;;;6.87;60.47;99339.47;5042891;28;20498;-89
2021/12/04 06:59:19;;;;;;;2.50;1.88;;;;;;;6.78;61.33;99344.88;5034112;28;20032;-89
2021/12/04 07:01:45;;;;;;;2.88;1.48;;;;;;;6.91;60.10;99347.06;5037005;28;20059;-90
2021/12/04 07:04:11;;;;;;;2.70;1.23;;;;;;;7.19;59.66;99336.78;5041448;28;20452;-89
2021/12/04 07:06:37;;;;;;;2.33;1.63;;;;;;;6.99;59.87;99333.91;5040261;28;20748;-90
2021/12/04 07:09:04;;;;;;;2.08;1.77;;;;;;;6.95;60.17;99342.66;5026777;28;20041;-89
2021/12/04 07:11:29;;;;;;;2.63;1.67;;;;;;;7.15;59.74;99342.91;5039878;28;20047;-90
2021/12/04 07:13:56;;;;;;;2.42;1.55;;;;;;;7.16;59.70;99336.00;5043009;28;20641;-89
2021/12/04 07:16:22;;;;;;;2.10;1.55;;;;;;;7.04;59.83;99339.81;5053013;28;20041;-90
2021/12/04 07:18:48;;;;;;;2.38;1.92;;;;;;;7.02;60.32;99338.97;5042798;28;20227;-90
2021/12/04 07:21:14;;;;;;;3.15;2.75;;;;;;;6.92;60.65;99346.16;5035178;28;20407;-89
2021/12/04 07:23:40;;;;;;;12.35;9.23;;;;;;;6.90;60.51;99339.38;5059265;28;20028;-89
2021/12/04 07:26:06;;;;;;;10.65;8.18;;;;;;;6.97;60.55;99336.56;5041822;28;20029;-90
2021/12/04 07:28:32;;;;;;;5.78;5.00;;;;;;;7.09;60.48;99332.75;5041705;28;20617;-89
2021/12/04 07:30:58;;;;;;;6.00;5.40;;;;;;;7.02;60.88;99326.94;5029800;28;20049;-90
2021/12/04 07:33:24;;;;;;;7.90;6.85;;;;;;;7.07;60.46;99330.25;5026314;28;20034;-90
2021/12/04 07:35:52;;;;;;;12.68;9.30;;;;;;;7.08;60.29;99338.81;5054553;28;20513;-89
2021/12/04 07:38:18;;;;;;;10.32;8.40;;;;;;;7.02;59.41;99331.22;5041619;28;20029;-90
2021/12/04 07:40:44;;;;;;;3.92;3.53;;;;;;;7.11;59.22;99326.66;5037269;28;20034;-90
2021/12/04 07:43:11;;;;;;;2.22;1.60;;;;;;;7.25;58.86;99326.25;5039239;28;20047;-90
2021/12/04 07:45:37;;;;;;;2.08;1.40;;;;;;;7.10;60.13;99337.03;5044426;28;20051;-90
2021/12/04 07:48:03;;;;;;;2.95;1.42;;;;;;;6.75;60.78;99343.19;5041651;28;20041;-90
2021/12/04 07:50:30;;;;;;;1.98;1.30;;;;;;;6.95;60.96;99342.66;5034019;28;20024;-90
2021/12/04 07:52:57;;;;;;;1.92;1.25;;;;;;;6.97;60.30;99333.97;5044900;28;20120;-92
2021/12/04 07:55:24;;;;;;;2.30;1.55;;;;;;;6.84;61.33;99336.97;5044997;28;20041;-89
2021/12/04 07:57:50;;;;;;;4.32;1.42;;;;;;;7.01;60.79;99329.56;5041712;28;20045;-90
2021/12/04 08:00:17;;;;;;;2.70;1.38;;;;;;;6.80;60.94;99323.28;5047828;28;20031;-90
2021/12/04 08:02:43;;;;;;;1.90;1.38;;;;;;;6.85;61.25;99317.97;5038615;28;20033;-90
2021/12/04 08:05:10;;;;;;;1.58;1.30;;;;;;;6.99;59.83;99318.41;5046430;28;20493;-90
2021/12/04 08:07:38;;;;;;;2.78;1.58;;;;;;;6.84;60.48;99330.03;5030843;28;20083;-90
2021/12/04 08:10:05;;;;;;;2.30;1.23;;;;;;;6.57;61.05;99334.25;5025925;28;20037;-92
2021/12/04 08:12:31;;;;;;;3.80;1.80;;;;;;;6.60;61.09;99341.06;5033267;28;20063;-91
2021/12/04 08:14:57;;;;;;;1.95;1.35;;;;;;;6.78;61.43;99335.38;5040592;28;20374;-90
2021/12/04 08:17:22;;;;;;;1.77;1.33;;;;;;;6.99;60.62;99327.00;5048241;28;20029;-90
2021/12/04 08:19:48;;;;;;;3.08;1.42;;;;;;;7.01;60.45;99321.81;5024863;28;20090;-90
2021/12/04 08:22:13;;;;;;;1.90;1.30;;;;;;;7.03;60.18;99313.13;5050562;28;20055;-90
2021/12/04 08:24:44;;;;;;;2.42;1.55;;;;;;;6.97;60.44;99315.91;5043848;28;20037;-92
2021/12/04 08:27:10;;;;;;;3.00;1.45;;;;;;;7.01;60.41;99319.25;5033900;28;20049;-91
2021/12/04 08:29:36;;;;;;;1.85;1.35;;;;;;;6.84;61.07;99319.72;5029948;28;20480;-92
2021/12/04 08:32:02;;;;;;;1.25;1.08;;;;;;;6.95;60.70;99324.59;5046492;28;20087;-91
2021/12/04 08:34:28;;;;;;;2.50;1.40;;;;;;;6.82;61.86;99325.81;5030443;28;20224;-92
2021/12/04 08:36:53;;;;;;;2.17;1.40;;;;;;;7.11;60.47;99318.06;5053561;28;20529;-92
2021/12/04 08:39:20;;;;;;;2.00;1.33;;;;;;;7.07;60.28;99325.06;5043826;28;20434;-92
2021/12/04 08:41:47;;;;;;;1.27;1.00;;;;;;;6.69;61.40;99327.91;5044219;28;20029;-87
2021/12/04 08:44:14;;;;;;;1.80;1.23;;;;;;;6.74;62.32;99312.28;5045432;28;20108;-88
2021/12/04 08:46:39;;;;;;;1.73;1.20;;;;;;;6.87;61.43;99317.03;5029239;28;20509;-87
2021/12/04 08:49:06;;;;;;;2.83;1.25;;;;;;;7.09;60.19;99317.25;5048405;28;20509;-87
2021/12/04 08:51:34;;;;;;;2.10;1.38;;;;;;;7.13;59.89;99313.72;5044052;28;20131;-87
2021/12/04 08:54:01;;;;;;;2.13;1.27;;;;;;;6.92;60.56;99317.78;5046608;28;20068;-87
2021/12/04 08:56:26;;;;;;;1.50;1.00;;;;;;;7.01;60.78;99311.50;5045157;28;20048;-87
2021/12/04 08:58:52;;;;;;;1.85;1.10;;;;;;;6.69;61.25;99311.59;5044504;28;20041;-87
2021/12/04 09:01:28;;;;;;;1.80;1.10;;;;;;;7.10;60.63;99317.25;5040377;28;20051;-87
2021/12/04 09:04:05;;;;;;;2.05;1.30;;;;;;;6.99;60.55;99308.09;5061404;28;20124;-87
2021/12/04 09:06:33;;;;;;;1.80;1.40;;;;;;;6.85;60.99;99294.75;5040452;28;20397;-87
2021/12/04 09:08:58;;;;;;;2.60;1.50;;;;;;;7.04;60.04;99299.34;5044611;28;20048;-87
2021/12/04 09:11:38;;;;;;;1.85;1.05;;;;;;;6.97;59.18;99304.72;5042614;28;20033;-87
2021/12/04 09:14:05;;;;;;;1.98;1.27;;;;;;;6.71;60.67;99317.53;5023346;28;20152;-87
2021/12/04 09:16:32;;;;;;;2.03;1.50;;;;;;;6.48;61.94;99331.09;5020401;28;20077;-87
2021/12/04 09:18:57;;;;;;;1.70;1.00;;;;;;;6.81;60.45;99319.78;5025261;28;20041;-87
2021/12/04 09:21:27;;;;;;;3.67;1.83;;;;;;;6.95;59.92;99317.69;5009868;28;20573;-87
2021/12/04 09:24:02;;;;;;;1.67;1.25;;;;;;;7.05;59.67;99311.34;5023435;28;20064;-87
2021/12/04 09:26:38;;;;;;;2.38;1.20;;;;;;;7.12;60.57;99304.25;5045042;28;20651;-87
2021/12/04 09:29:36;;;;;;;1.75;1.17;;;;;;;6.98;60.68;99312.44;5040159;28;20532;-87
2021/12/04 10:01:53;;;;;;;1.88;1.65;;;;;;;7.12;60.54;99253.47;5037410;28;20047;-87
2021/12/04 10:34:36;;;;;;;2.35;1.40;;;;;;;7.11;59.95;99174.31;5040007;28;20186;-87
2021/12/04 10:37:09;;;;;;;2.28;1.45;;;;;;;7.30;59.50;99165.97;5050264;28;20039;-87
2021/12/04 10:39:36;;;;;;;2.83;1.10;;;;;;;7.17;59.24;99156.94;5037052;28;20029;-87
2021/12/04 10:42:04;;;;;;;3.67;1.42;;;;;;;7.27;60.42;99158.31;5045677;28;20052;-88
2021/12/04 10:44:31;;;;;;;2.83;1.50;;;;;;;7.26;59.85;99154.03;5039913;28;20431;-88
2021/12/04 10:47:02;;;;;;;2.50;1.45;;;;;;;7.37;59.36;99149.38;5037975;28;20087;-87
2021/12/04 10:50:31;;;;;;;2.55;1.45;;;;;;;7.41;59.82;99143.19;5040482;28;20048;-88
2021/12/04 10:53:06;;;;;;;1.63;1.13;;;;;;;7.14;60.52;99138.06;5033740;28;20037;-90
2021/12/04 11:34:57;;;;;;;2.50;1.50;;;;;;;7.56;60.55;99070.31;5041563;28;20052;-88
2021/12/04 11:40:35;;;;;;;4.75;1.75;;;;;;;7.57;60.44;99054.78;5044899;28;20126;-88
2021/12/04 11:43:00;;;;;;;1.98;1.30;;;;;;;7.67;60.38;99055.31;5037282;28;20037;-89
2021/12/04 11:45:34;;;;;;;2.33;1.30;;;;;;;7.51;60.04;99036.91;5034191;28;20521;-90
2021/12/04 11:48:03;;;;;;;3.03;1.35;;;;;;;7.78;60.25;99027.31;5030376;28;20029;-90
2021/12/04 11:50:32;;;;;;;1.52;1.02;;;;;;;7.81;59.62;99019.44;5040450;28;20112;-89
2021/12/04 11:53:06;;;;;;;2.00;1.02;;;;;;;7.82;59.70;99021.09;5046754;28;20174;-90
2021/12/04 11:55:38;;;;;;;1.83;1.13;;;;;;;7.68;60.09;99028.53;5046472;28;21459;-90
2021/12/04 11:58:15;;;;;;;1.67;1.10;;;;;;;7.57;60.79;99012.59;5044900;28;20044;-89
2021/12/04 12:00:41;;;;;;;1.60;1.00;;;;;;;7.87;58.72;99002.84;5036895;28;20048;-89
2021/12/04 12:03:17;;;;;;;1.50;1.00;;;;;;;7.76;59.07;98998.06;5040869;28;20044;-89
2021/12/04 12:05:50;;;;;;;4.28;1.00;;;;;;;7.57;59.85;98999.69;5037949;28;20032;-89
2021/12/04 12:08:33;;;;;;;1.75;1.08;;;;;;;7.43;61.42;98996.75;5041488;28;20028;-89
2021/12/04 12:11:26;;;;;;;2.08;0.90;;;;;;;7.80;60.64;98986.72;5040291;28;20116;-89
2021/12/04 12:14:06;;;;;;;2.47;0.93;;;;;;;7.90;58.67;98975.16;5041714;28;20051;-89
2021/12/04 12:16:39;;;;;;;2.17;0.70;;;;;;;7.91;59.37;98981.16;5057098;28;20139;-89
2021/12/04 12:19:13;;;;;;;1.08;0.70;;;;;;;7.82;58.54;98971.19;5039865;28;20045;-89
2021/12/04 12:21:42;;;;;;;;;;;;;;;7.80;59.28;98980.72;5045001;28;20064;-89
2021/12/04 12:33:02;;;;;;;1.55;0.95;;;;;;;7.78;60.11;98967.84;5041770;28;20052;-89
2021/12/04 12:38:52;;;;;;;1.98;0.82;;;;;;;7.67;59.65;98959.69;5050412;28;20524;-89
2021/12/04 12:41:41;;;;;;;1.38;1.05;;;;;;;7.84;59.78;98953.84;5039145;28;20068;-89
2021/12/04 12:44:14;;;;;;;2.05;1.00;;;;;;;7.57;60.99;98956.59;5059831;28;20037;-89
2021/12/04 12:46:48;;;;;;;1.38;1.05;;;;;;;7.65;59.82;98949.38;5038645;28;20163;-89
2021/12/04 12:49:39;;;;;;;1.15;0.95;;;;;;;7.76;60.55;98940.41;5052942;28;20089;-89
2021/12/04 12:52:21;;;;;;;1.48;1.00;;;;;;;7.75;59.93;98929.22;5040445;28;20026;-89
2021/12/04 12:54:56;;;;;;;1.38;1.10;;;;;;;7.84;59.76;98925.41;5048846;28;20040;-89
2021/12/04 12:57:27;;;;;;;1.67;1.08;;;;;;;7.75;60.06;98920.59;5041245;28;20532;-88
2021/12/04 13:14:25;;;;;;;1.60;1.15;;;;;;;7.58;62.13;98955.66;5039241;28;20212;-89
2021/12/04 13:17:12;;;;;;;1.65;1.27;;;;;;;7.49;63.72;98957.78;5039071;28;20028;-90
2021/12/04 13:19:41;;;;;;;2.33;1.60;;;;;;;7.57;63.88;98951.44;5042547;28;20056;-89
2021/12/04 13:22:15;;;;;;;2.45;1.67;;;;;;;7.61;63.90;98950.38;5042315;28;20141;-89
2021/12/04 13:24:42;;;;;;;3.70;1.90;;;;;;;7.47;65.37;98946.66;5039945;28;20983;-89
2021/12/04 13:29:47;;;;;;;3.17;2.03;;;;;;;7.63;64.60;98935.69;5040378;28;20037;-89
2021/12/04 13:32:15;;;;;;;3.92;1.88;;;;;;;7.61;65.65;98931.50;5041205;28;20025;-89
2021/12/04 13:34:43;;;;;;;2.42;1.63;;;;;;;7.61;64.92;98923.72;5041791;28;20041;-89
2021/12/04 13:37:10;;;;;;;3.53;2.08;;;;;;;7.63;65.32;98924.50;5045457;28;20091;-89
2021/12/04 13:39:39;;;;;;;4.03;1.98;;;;;;;7.58;65.89;98929.84;5025188;28;20622;-89
2021/12/04 13:42:06;;;;;;;3.38;1.85;;;;;;;7.53;65.48;98933.50;5028132;28;20135;-91
2021/12/04 13:44:35;;;;;;;2.80;1.75;;;;;;;7.47;66.13;98921.66;5049322;28;20173;-91
2021/12/04 13:47:04;;;;;;;3.70;2.67;;;;;;;7.62;65.16;98920.22;5028466;28;20038;-91
2021/12/04 13:49:33;;;;;;;3.60;2.30;;;;;;;7.67;65.56;98913.97;5041574;28;20043;-91
2021/12/04 13:52:07;;;;;;;3.10;1.73;;;;;;;7.61;64.62;98914.22;5039629;28;20040;-91
2021/12/04 13:54:36;;;;;;;2.40;1.80;;;;;;;7.57;65.69;98914.41;5045342;28;20044;-90
2021/12/04 13:57:08;;;;;;;2.33;1.60;;;;;;;7.40;65.64;98915.06;5024077;28;20033;-91
2021/12/04 13:59:33;;;;;;;4.45;1.77;;;;;;;7.67;65.59;98908.00;5046405;28;20033;-91
2021/12/04 14:01:59;;;;;;;3.63;2.05;;;;;;;7.76;64.62;98912.78;5038468;28;20041;-91
2021/12/04 14:04:25;;;;;;;3.88;1.60;;;;;;;7.70;64.83;98907.88;5056744;28;20037;-89
2021/12/04 14:06:57;;;;;;;2.67;1.73;;;;;;;7.18;66.13;98911.56;5040179;28;20036;-90
2021/12/04 14:09:30;;;;;;;3.20;1.90;;;;;;;7.51;65.75;98918.06;5020714;28;20056;-90
2021/12/04 14:11:55;;;;;;;3.70;1.58;;;;;;;7.77;65.01;98916.22;5034239;28;20099;-90
2021/12/04 14:14:25;;;;;;;2.88;1.90;;;;;;;7.83;63.75;98914.22;5046946;28;20232;-90
2021/12/04 14:16:53;;;;;;;3.85;1.83;;;;;;;7.87;63.50;98912.38;5034827;28;20041;-90
2021/12/04 14:19:21;;;;;;;3.53;1.58;;;;;;;7.80;63.88;98916.94;5024282;28;20469;-91
2021/12/04 14:22:08;;;;;;;3.38;1.70;;;;;;;7.78;63.08;98916.16;5036061;28;20176;-91
2021/12/04 14:24:42;;;;;;;3.20;1.80;;;;;;;7.79;63.44;98922.19;5046141;28;20029;-91
2021/12/04 14:27:10;;;;;;;2.58;1.70;;;;;;;7.71;63.90;98932.81;5039881;28;20041;-91
2021/12/04 14:29:41;;;;;;;2.42;1.58;;;;;;;7.76;63.80;98940.41;5025632;28;20048;-91
2021/12/04 14:32:09;;;;;;;2.97;2.00;;;;;;;7.62;64.48;98954.66;5038552;28;20044;-91
2021/12/04 14:34:35;;;;;;;4.57;1.98;;;;;;;7.61;64.72;98958.16;5026695;28;20041;-91
2021/12/04 14:37:12;;;;;;;4.38;2.50;;;;;;;7.48;64.71;98966.41;5036205;28;20113;-91
2021/12/04 14:39:43;;;;;;;4.18;2.20;;;;;;;7.41;65.40;98970.13;5039944;28;20090;-91
2021/12/04 14:42:20;;;;;;;3.42;2.30;;;;;;;7.54;65.35;98974.78;5039174;28;20037;-91
2021/12/04 14:45:02;;;;;;;5.78;1.98;;;;;;;7.44;66.20;98982.91;5042690;28;20036;-91
2021/12/04 14:47:32;;;;;;;2.67;1.83;;;;;;;7.33;67.25;98972.16;5025450;28;20164;-91
2021/12/04 14:50:00;;;;;;;6.15;2.42;;;;;;;7.44;66.71;98978.59;5040216;28;20613;-91
2021/12/04 14:52:28;;;;;;;4.55;2.45;;;;;;;7.34;67.01;98973.84;5044587;28;20398;-91
2021/12/04 14:54:54;;;;;;;4.35;2.17;;;;;;;7.40;67.23;98977.06;5041929;28;20036;-91
2021/12/04 14:57:28;;;;;;;4.88;2.53;;;;;;;7.33;68.02;98980.75;5039109;28;20498;-90
2021/12/04 15:00:25;;;;;;;3.43;2.80;;;;;;;7.32;68.47;98991.97;5036593;28;20113;-91
2021/12/04 15:03:05;;;;;;;4.70;2.30;;;;;;;7.44;67.95;98991.53;5043335;28;20659;-91
2021/12/04 15:05:37;;;;;;;3.05;2.05;;;;;;;7.30;68.23;98996.34;5045009;28;20481;-91